Marathon Shores, Florida
Current Conditions -  °F | °C
As of 5:53 PM on Thursday 18 Dec 2014 (Local Time) from KMTH Reporting Station
Clear Clear  
Wind Chill: 68°   Ceiling: Unl
Heat Index: 68°   Visibility: 10mi
Dew Point: 64°   Wind: 3mph
Humidity: 87%   Direction: 340°NNW
Pressure: 30.07"   Gusts: NA
Location:  24.73°N, 81.05°W
Report Text: KMTH 182253Z AUTO 34003KT 10SM CLR 20/18 A3007 RMK AO2 SLP182 T02000178
Loading
Personal Weather Stations






























Interactive Weather Map New forecast layout! Learn more

10-Day Weather Forecast

Advertisements
Track Severe Weather on mobile